Terminal Aerodrome Forecast
Issued by NWS

Home | Current Version | Previous Version | Graphics & Text | Print | Product List | Glossary On
Versions: 1 2 3 4 5 6 7 8 9 10 11 12 13 14 15 16 17 18 19
000
FTUS41 KCLE 151741
TAFFDY
TAF
KFDY 151741Z 1518/1618 24012G22KT P6SM OVC028
      TEMPO 1518/1519 4SM -SHSN BKN018
     FM152200 25012KT P6SM SCT025 OVC035
     FM160100 25010KT P6SM OVC070=

USA.gov is the U.S. government's official web portal to all federal, state and local government web resources and services.